sensor_id;sensor_type;location;lat;lon;timestamp;pressure;altitude;pressure_sealevel;temperature;humidity
71964;BME280;59834;52.124;5.422;2022-09-09T00:00:38;100816.22;;;14.65;89.88
71964;BME280;59834;52.124;5.422;2022-09-09T00:03:16;100812.53;;;14.68;89.79
71964;BME280;59834;52.124;5.422;2022-09-09T00:12:33;100798.28;;;14.70;89.89
71964;BME280;59834;52.124;5.422;2022-09-09T00:15:12;100800.06;;;14.70;89.68
71964;BME280;59834;52.124;5.422;2022-09-09T00:21:14;100792.41;;;14.67;89.66
71964;BME280;59834;52.124;5.422;2022-09-09T00:26:53;100803.41;;;14.72;90.08
71964;BME280;59834;52.124;5.422;2022-09-09T00:30:00;100798.53;;;14.67;89.59
71964;BME280;59834;52.124;5.422;2022-09-09T00:32:29;100793.38;;;14.66;89.84
71964;BME280;59834;52.124;5.422;2022-09-09T00:35:04;100796.03;;;14.66;90.46
71964;BME280;59834;52.124;5.422;2022-09-09T00:37:39;100802.22;;;14.65;90.23
71964;BME280;59834;52.124;5.422;2022-09-09T00:40:18;100794.31;;;14.65;90.01
71964;BME280;59834;52.124;5.422;2022-09-09T00:42:56;100794.31;;;14.65;90.03
71964;BME280;59834;52.124;5.422;2022-09-09T00:48:30;100793.28;;;14.56;90.62
71964;BME280;59834;52.124;5.422;2022-09-09T00:51:15;100787.75;;;14.48;90.89
71964;BME280;59834;52.124;5.422;2022-09-09T00:57:10;100786.97;;;14.36;91.10
71964;BME280;59834;52.124;5.422;2022-09-09T00:59:47;100793.16;;;14.35;91.17
71964;BME280;59834;52.124;5.422;2022-09-09T01:02:36;100792.00;;;14.28;91.44
71964;BME280;59834;52.124;5.422;2022-09-09T01:08:58;100802.06;;;14.11;91.98
71964;BME280;59834;52.124;5.422;2022-09-09T01:14:49;100800.28;;;14.01;92.77
71964;BME280;59834;52.124;5.422;2022-09-09T01:17:27;100801.63;;;13.95;93.06
71964;BME280;59834;52.124;5.422;2022-09-09T01:26:24;100796.00;;;13.88;92.83
71964;BME280;59834;52.124;5.422;2022-09-09T01:28:54;100790.00;;;13.86;93.17
71964;BME280;59834;52.124;5.422;2022-09-09T01:31:32;100790.72;;;13.88;93.01
71964;BME280;59834;52.124;5.422;2022-09-09T01:34:45;100781.75;;;13.91;92.76
71964;BME280;59834;52.124;5.422;2022-09-09T01:37:36;100780.22;;;13.88;92.77
71964;BME280;59834;52.124;5.422;2022-09-09T01:40:03;100781.97;;;13.88;92.84
71964;BME280;59834;52.124;5.422;2022-09-09T01:43:12;100783.19;;;13.84;92.50
71964;BME280;59834;52.124;5.422;2022-09-09T01:45:56;100790.38;;;13.82;92.74
71964;BME280;59834;52.124;5.422;2022-09-09T01:48:30;100785.34;;;13.79;92.92
71964;BME280;59834;52.124;5.422;2022-09-09T01:52:03;100786.28;;;13.78;92.89
71964;BME280;59834;52.124;5.422;2022-09-09T01:54:37;100779.34;;;13.77;92.58
71964;BME280;59834;52.124;5.422;2022-09-09T01:57:16;100782.22;;;13.74;92.89
71964;BME280;59834;52.124;5.422;2022-09-09T02:00:06;100784.16;;;13.72;92.83
71964;BME280;59834;52.124;5.422;2022-09-09T02:03:42;100777.44;;;13.67;92.77
71964;BME280;59834;52.124;5.422;2022-09-09T02:06:42;100776.84;;;13.64;93.04
71964;BME280;59834;52.124;5.422;2022-09-09T02:12:12;100770.97;;;13.60;92.80
71964;BME280;59834;52.124;5.422;2022-09-09T02:15:03;100769.31;;;13.59;93.01
71964;BME280;59834;52.124;5.422;2022-09-09T02:17:57;100760.81;;;13.56;93.13
71964;BME280;59834;52.124;5.422;2022-09-09T02:20:27;100763.56;;;13.54;92.71
71964;BME280;59834;52.124;5.422;2022-09-09T02:23:17;100766.31;;;13.53;92.36
71964;BME280;59834;52.124;5.422;2022-09-09T02:29:05;100766.69;;;13.48;92.30
71964;BME280;59834;52.124;5.422;2022-09-09T02:32:05;100760.69;;;13.46;92.34
71964;BME280;59834;52.124;5.422;2022-09-09T02:34:51;100757.47;;;13.42;92.50
71964;BME280;59834;52.124;5.422;2022-09-09T02:37:27;100762.72;;;13.42;92.25
71964;BME280;59834;52.124;5.422;2022-09-09T02:40:07;100760.19;;;13.41;92.69
71964;BME280;59834;52.124;5.422;2022-09-09T02:42:43;100759.72;;;13.36;92.43
71964;BME280;59834;52.124;5.422;2022-09-09T02:45:41;100760.69;;;13.35;92.17
71964;BME280;59834;52.124;5.422;2022-09-09T02:48:27;100757.19;;;13.34;92.39
71964;BME280;59834;52.124;5.422;2022-09-09T02:51:14;100756.59;;;13.31;92.49
71964;BME280;59834;52.124;5.422;2022-09-09T02:53:50;100759.34;;;13.29;92.44
71964;BME280;59834;52.124;5.422;2022-09-09T02:56:25;100756.13;;;13.26;92.25
71964;BME280;59834;52.124;5.422;2022-09-09T02:59:03;100754.66;;;13.21;92.49
71964;BME280;59834;52.124;5.422;2022-09-09T03:01:30;100752.84;;;13.22;92.84
71964;BME280;59834;52.124;5.422;2022-09-09T03:04:02;100752.84;;;13.22;92.60
71964;BME280;59834;52.124;5.422;2022-09-09T03:06:53;100752.13;;;13.20;92.35
71964;BME280;59834;52.124;5.422;2022-09-09T03:09:43;100753.19;;;13.17;92.87
71964;BME280;59834;52.124;5.422;2022-09-09T03:12:14;100754.06;;;13.18;92.62
71964;BME280;59834;52.124;5.422;2022-09-09T03:14:48;100748.91;;;13.16;92.36
71964;BME280;59834;52.124;5.422;2022-09-09T03:17:17;100752.59;;;13.14;93.22
71964;BME280;59834;52.124;5.422;2022-09-09T03:19:46;100753.69;;;13.11;92.45
71964;BME280;59834;52.124;5.422;2022-09-09T03:22:24;100750.31;;;13.09;92.94
71964;BME280;59834;52.124;5.422;2022-09-09T03:25:04;100746.13;;;13.07;92.48
71964;BME280;59834;52.124;5.422;2022-09-09T03:27:32;100745.41;;;13.05;92.91
71964;BME280;59834;52.124;5.422;2022-09-09T03:30:07;100749.94;;;13.03;93.00
71964;BME280;59834;52.124;5.422;2022-09-09T03:32:35;100751.72;;;13.02;93.35
71964;BME280;59834;52.124;5.422;2022-09-09T03:35:27;100745.75;;;13.00;93.09
71964;BME280;59834;52.124;5.422;2022-09-09T03:37:54;100746.72;;;12.99;93.16
71964;BME280;59834;52.124;5.422;2022-09-09T03:44:40;100752.91;;;12.98;93.13
71964;BME280;59834;52.124;5.422;2022-09-09T03:47:11;100747.91;;;12.95;92.82
71964;BME280;59834;52.124;5.422;2022-09-09T03:49:52;100746.19;;;12.94;93.31
71964;BME280;59834;52.124;5.422;2022-09-09T03:52:26;100745.13;;;12.96;93.48
71964;BME280;59834;52.124;5.422;2022-09-09T03:54:58;100746.81;;;12.97;93.02
71964;BME280;59834;52.124;5.422;2022-09-09T03:57:32;100746.72;;;12.99;93.38
71964;BME280;59834;52.124;5.422;2022-09-09T04:00:12;100751.22;;;12.97;92.96
71964;BME280;59834;52.124;5.422;2022-09-09T04:02:41;100743.47;;;12.95;93.07
71964;BME280;59834;52.124;5.422;2022-09-09T04:05:14;100739.28;;;12.93;93.15
71964;BME280;59834;52.124;5.422;2022-09-09T04:08:08;100741.91;;;12.93;93.27
71964;BME280;59834;52.124;5.422;2022-09-09T04:10:48;100740.34;;;12.90;93.97
71964;BME280;59834;52.124;5.422;2022-09-09T04:13:58;100740.56;;;12.87;93.61
71964;BME280;59834;52.124;5.422;2022-09-09T04:16:28;100736.19;;;12.88;93.81
71964;BME280;59834;52.124;5.422;2022-09-09T04:19:03;100741.44;;;12.88;94.20
71964;BME280;59834;52.124;5.422;2022-09-09T04:21:36;100738.91;;;12.86;94.34
71964;BME280;59834;52.124;5.422;2022-09-09T04:24:04;100739.97;;;12.84;94.01
71964;BME280;59834;52.124;5.422;2022-09-09T04:26:33;100732.81;;;12.86;93.97
71964;BME280;59834;52.124;5.422;2022-09-09T04:29:32;100731.16;;;12.85;93.97
71964;BME280;59834;52.124;5.422;2022-09-09T04:32:00;100725.03;;;12.84;94.20
71964;BME280;59834;52.124;5.422;2022-09-09T04:38:04;100729.00;;;12.90;94.21
71964;BME280;59834;52.124;5.422;2022-09-09T04:40:36;100733.78;;;12.96;94.45
71964;BME280;59834;52.124;5.422;2022-09-09T04:43:05;100739.44;;;13.03;94.39
71964;BME280;59834;52.124;5.422;2022-09-09T04:45:38;100727.63;;;13.08;94.75
71964;BME280;59834;52.124;5.422;2022-09-09T04:48:21;100719.50;;;13.11;94.38
71964;BME280;59834;52.124;5.422;2022-09-09T04:57:20;100710.91;;;13.09;93.78
71964;BME280;59834;52.124;5.422;2022-09-09T05:03:27;100726.16;;;13.04;94.04
71964;BME280;59834;52.124;5.422;2022-09-09T05:05:53;100722.00;;;13.02;94.35
71964;BME280;59834;52.124;5.422;2022-09-09T05:08:22;100722.00;;;13.02;94.63
71964;BME280;59834;52.124;5.422;2022-09-09T05:14:02;100724.63;;;13.02;94.54
71964;BME280;59834;52.124;5.422;2022-09-09T05:16:38;100731.69;;;13.01;94.64
71964;BME280;59834;52.124;5.422;2022-09-09T05:19:12;100728.09;;;13.02;94.48
71964;BME280;59834;52.124;5.422;2022-09-09T05:21:46;100719.25;;;13.03;94.51
71964;BME280;59834;52.124;5.422;2022-09-09T05:24:14;100722.69;;;13.04;94.68
71964;BME280;59834;52.124;5.422;2022-09-09T05:26:41;100712.94;;;13.06;94.19
71964;BME280;59834;52.124;5.422;2022-09-09T05:29:09;100713.75;;;13.06;94.86
71964;BME280;59834;52.124;5.422;2022-09-09T05:31:35;100704.91;;;13.07;94.36
71964;BME280;59834;52.124;5.422;2022-09-09T05:34:08;100703.16;;;13.08;94.64
71964;BME280;59834;52.124;5.422;2022-09-09T05:36:48;100703.00;;;13.09;94.20
71964;BME280;59834;52.124;5.422;2022-09-09T05:39:29;100706.38;;;13.11;94.29
71964;BME280;59834;52.124;5.422;2022-09-09T05:41:55;100711.88;;;13.19;94.32
71964;BME280;59834;52.124;5.422;2022-09-09T05:44:22;100714.06;;;13.26;93.81
71964;BME280;59834;52.124;5.422;2022-09-09T05:46:50;100708.56;;;13.29;94.14
71964;BME280;59834;52.124;5.422;2022-09-09T05:49:56;100712.63;;;13.33;94.31
71964;BME280;59834;52.124;5.422;2022-09-09T05:52:23;100709.03;;;13.34;94.06
71964;BME280;59834;52.124;5.422;2022-09-09T05:54:51;100710.72;;;13.46;93.59
71964;BME280;59834;52.124;5.422;2022-09-09T05:57:38;100708.06;;;13.91;93.02
71964;BME280;59834;52.124;5.422;2022-09-09T06:00:23;100706.75;;;14.40;90.32
71964;BME280;59834;52.124;5.422;2022-09-09T06:02:52;100719.97;;;14.29;90.23
71964;BME280;59834;52.124;5.422;2022-09-09T06:05:19;100728.38;;;14.66;89.90
71964;BME280;59834;52.124;5.422;2022-09-09T06:07:54;100726.56;;;14.67;88.87
71964;BME280;59834;52.124;5.422;2022-09-09T06:10:25;100730.19;;;14.54;89.21
71964;BME280;59834;52.124;5.422;2022-09-09T06:12:55;100718.09;;;14.52;89.29
71964;BME280;59834;52.124;5.422;2022-09-09T06:15:23;100716.53;;;14.60;90.19
71964;BME280;59834;52.124;5.422;2022-09-09T06:17:58;100718.34;;;14.81;89.38
71964;BME280;59834;52.124;5.422;2022-09-09T06:20:27;100719.06;;;14.83;89.41
71964;BME280;59834;52.124;5.422;2022-09-09T06:23:04;100715.84;;;14.79;89.53
71964;BME280;59834;52.124;5.422;2022-09-09T06:25:37;100710.31;;;14.82;89.84
71964;BME280;59834;52.124;5.422;2022-09-09T06:28:15;100717.38;;;14.82;89.90
71964;BME280;59834;52.124;5.422;2022-09-09T06:31:10;100710.13;;;14.74;89.85
71964;BME280;59834;52.124;5.422;2022-09-09T06:33:41;100709.69;;;14.90;90.34
71964;BME280;59834;52.124;5.422;2022-09-09T06:36:27;100701.69;;;15.01;89.69
71964;BME280;59834;52.124;5.422;2022-09-09T06:38:58;100696.63;;;15.09;89.65
71964;BME280;59834;52.124;5.422;2022-09-09T06:41:41;100698.22;;;15.22;89.39
71964;BME280;59834;52.124;5.422;2022-09-09T06:44:14;100695.50;;;15.33;89.55
71964;BME280;59834;52.124;5.422;2022-09-09T06:46:43;100701.09;;;15.40;89.53
71964;BME280;59834;52.124;5.422;2022-09-09T06:49:13;100693.84;;;15.63;88.90
71964;BME280;59834;52.124;5.422;2022-09-09T06:51:43;100692.50;;;15.78;88.80
71964;BME280;59834;52.124;5.422;2022-09-09T06:54:22;100702.56;;;15.94;87.47
71964;BME280;59834;52.124;5.422;2022-09-09T06:57:12;100703.78;;;15.80;87.68
71964;BME280;59834;52.124;5.422;2022-09-09T07:00:03;100695.16;;;15.78;87.84
71964;BME280;59834;52.124;5.422;2022-09-09T07:02:38;100689.97;;;15.67;88.16
71964;BME280;59834;52.124;5.422;2022-09-09T07:05:24;100697.25;;;15.53;88.65
71964;BME280;59834;52.124;5.422;2022-09-09T07:08:39;100695.03;;;15.59;88.38
71964;BME280;59834;52.124;5.422;2022-09-09T07:11:47;100695.41;;;15.75;88.45
71964;BME280;59834;52.124;5.422;2022-09-09T07:18:03;100686.88;;;16.12;86.66
71964;BME280;59834;52.124;5.422;2022-09-09T07:20:38;100703.25;;;16.06;86.24
71964;BME280;59834;52.124;5.422;2022-09-09T07:23:32;100693.53;;;15.96;87.29
71964;BME280;59834;52.124;5.422;2022-09-09T07:26:38;100692.50;;;15.78;87.13
71964;BME280;59834;52.124;5.422;2022-09-09T07:29:20;100697.41;;;15.62;87.70
71964;BME280;59834;52.124;5.422;2022-09-09T07:31:54;100703.78;;;15.59;88.10
71964;BME280;59834;52.124;5.422;2022-09-09T07:34:26;100704.88;;;15.47;88.79
71964;BME280;59834;52.124;5.422;2022-09-09T07:37:25;100719.41;;;15.41;88.60
71964;BME280;59834;52.124;5.422;2022-09-09T07:39:56;100719.88;;;15.46;88.63
71964;BME280;59834;52.124;5.422;2022-09-09T07:42:26;100712.56;;;15.60;87.57
71964;BME280;59834;52.124;5.422;2022-09-09T07:44:55;100710.97;;;15.78;87.08
71964;BME280;59834;52.124;5.422;2022-09-09T07:47:28;100703.00;;;16.09;86.79
71964;BME280;59834;52.124;5.422;2022-09-09T07:50:02;100700.97;;;16.41;85.05
71964;BME280;59834;52.124;5.422;2022-09-09T07:52:33;100701.78;;;16.52;82.64
71964;BME280;59834;52.124;5.422;2022-09-09T07:55:12;100699.97;;;16.62;83.21
71964;BME280;59834;52.124;5.422;2022-09-09T07:57:53;100699.00;;;16.72;83.40
71964;BME280;59834;52.124;5.422;2022-09-09T08:00:23;100702.78;;;16.70;82.57
71964;BME280;59834;52.124;5.422;2022-09-09T08:04:15;100710.28;;;16.65;83.88
71964;BME280;59834;52.124;5.422;2022-09-09T08:07:14;100704.16;;;16.35;83.34
71964;BME280;59834;52.124;5.422;2022-09-09T08:10:09;100705.94;;;16.25;84.49
71964;BME280;59834;52.124;5.422;2022-09-09T08:13:08;100706.47;;;16.19;84.22
71964;BME280;59834;52.124;5.422;2022-09-09T08:16:31;100701.91;;;16.21;83.71
71964;BME280;59834;52.124;5.422;2022-09-09T08:19:30;100707.75;;;16.15;83.87
71964;BME280;59834;52.124;5.422;2022-09-09T08:21:59;100720.78;;;16.07;83.83
71964;BME280;59834;52.124;5.422;2022-09-09T08:24:29;100712.44;;;16.01;84.22
71964;BME280;59834;52.124;5.422;2022-09-09T08:27:03;100718.53;;;16.02;84.08
71964;BME280;59834;52.124;5.422;2022-09-09T08:29:56;100712.84;;;15.97;84.80
71964;BME280;59834;52.124;5.422;2022-09-09T08:32:25;100714.09;;;15.93;84.27
71964;BME280;59834;52.124;5.422;2022-09-09T08:35:10;100727.69;;;15.88;84.70
71964;BME280;59834;52.124;5.422;2022-09-09T08:38:09;100725.44;;;15.84;83.86
71964;BME280;59834;52.124;5.422;2022-09-09T08:40:40;100728.22;;;15.82;84.40
71964;BME280;59834;52.124;5.422;2022-09-09T08:43:12;100720.28;;;15.82;84.86
71964;BME280;59834;52.124;5.422;2022-09-09T08:46:34;100725.22;;;15.96;84.44
71964;BME280;59834;52.124;5.422;2022-09-09T09:02:04;100737.63;;;16.25;83.69
71964;BME280;59834;52.124;5.422;2022-09-09T09:10:44;100730.81;;;16.32;82.91
71964;BME280;59834;52.124;5.422;2022-09-09T09:14:00;100741.84;;;16.37;82.27
71964;BME280;59834;52.124;5.422;2022-09-09T09:19:57;100741.66;;;16.29;83.14
71964;BME280;59834;52.124;5.422;2022-09-09T09:25:21;100744.59;;;16.16;82.47
71964;BME280;59834;52.124;5.422;2022-09-09T09:31:30;100749.19;;;16.24;82.48
71964;BME280;59834;52.124;5.422;2022-09-09T09:34:26;100755.56;;;16.31;82.48
71964;BME280;59834;52.124;5.422;2022-09-09T09:40:54;100743.38;;;16.40;82.10
71964;BME280;59834;52.124;5.422;2022-09-09T09:47:16;100742.78;;;16.46;82.05
71964;BME280;59834;52.124;5.422;2022-09-09T09:50:01;100743.22;;;16.51;81.86
71964;BME280;59834;52.124;5.422;2022-09-09T09:52:32;100741.16;;;16.55;81.14
71964;BME280;59834;52.124;5.422;2022-09-09T09:55:12;100749.19;;;16.63;81.33
71964;BME280;59834;52.124;5.422;2022-09-09T09:57:44;100741.44;;;16.71;80.72
71964;BME280;59834;52.124;5.422;2022-09-09T10:03:33;100744.19;;;16.60;80.96
71964;BME280;59834;52.124;5.422;2022-09-09T10:06:36;100739.50;;;16.54;80.46
71964;BME280;59834;52.124;5.422;2022-09-09T10:09:38;100737.25;;;16.59;81.12
71964;BME280;59834;52.124;5.422;2022-09-09T10:19:15;100730.03;;;16.51;81.55
71964;BME280;59834;52.124;5.422;2022-09-09T10:25:42;100733.50;;;16.52;81.83
71964;BME280;59834;52.124;5.422;2022-09-09T10:28:43;100736.13;;;16.52;80.99
71964;BME280;59834;52.124;5.422;2022-09-09T10:36:52;100746.00;;;16.40;82.89
71964;BME280;59834;52.124;5.422;2022-09-09T10:39:39;100747.69;;;16.50;83.21
71964;BME280;59834;52.124;5.422;2022-09-09T10:58:09;100743.53;;;16.67;85.66
71964;BME280;59834;52.124;5.422;2022-09-09T11:01:11;100743.94;;;16.82;85.48
71964;BME280;59834;52.124;5.422;2022-09-09T11:03:51;100744.22;;;16.89;85.66
71964;BME280;59834;52.124;5.422;2022-09-09T11:06:30;100744.81;;;17.39;85.74
71964;BME280;59834;52.124;5.422;2022-09-09T11:09:18;100735.38;;;17.74;82.19
71964;BME280;59834;52.124;5.422;2022-09-09T11:11:57;100736.44;;;17.91;82.25
71964;BME280;59834;52.124;5.422;2022-09-09T11:14:50;100736.75;;;17.88;82.33
71964;BME280;59834;52.124;5.422;2022-09-09T11:17:40;100732.41;;;17.87;82.16
71964;BME280;59834;52.124;5.422;2022-09-09T11:20:13;100731.19;;;18.09;82.24
71964;BME280;59834;52.124;5.422;2022-09-09T11:22:55;100726.94;;;18.16;80.24
71964;BME280;59834;52.124;5.422;2022-09-09T11:25:34;100726.69;;;17.92;79.78
71964;BME280;59834;52.124;5.422;2022-09-09T11:34:42;100729.25;;;17.36;81.66
71964;BME280;59834;52.124;5.422;2022-09-09T11:40:25;100719.53;;;17.64;80.46
71964;BME280;59834;52.124;5.422;2022-09-09T11:46:31;100723.06;;;17.55;78.94
71964;BME280;59834;52.124;5.422;2022-09-09T11:51:53;100718.50;;;17.75;78.99
71964;BME280;59834;52.124;5.422;2022-09-09T11:54:54;100720.94;;;17.59;79.14
71964;BME280;59834;52.124;5.422;2022-09-09T11:57:36;100723.81;;;17.38;80.52
71964;BME280;59834;52.124;5.422;2022-09-09T12:00:41;100727.75;;;17.24;81.82
71964;BME280;59834;52.124;5.422;2022-09-09T12:03:42;100722.06;;;17.19;83.46
71964;BME280;59834;52.124;5.422;2022-09-09T12:06:30;100723.34;;;17.05;83.78
71964;BME280;59834;52.124;5.422;2022-09-09T12:17:28;100726.44;;;16.91;84.65
71964;BME280;59834;52.124;5.422;2022-09-09T12:28:54;100727.69;;;16.77;86.88
71964;BME280;59834;52.124;5.422;2022-09-09T12:34:47;100722.91;;;17.10;85.02
71964;BME280;59834;52.124;5.422;2022-09-09T12:37:34;100728.56;;;17.34;86.08
71964;BME280;59834;52.124;5.422;2022-09-09T12:40:19;100727.69;;;17.43;84.81
71964;BME280;59834;52.124;5.422;2022-09-09T12:42:46;100722.91;;;17.57;84.98
71964;BME280;59834;52.124;5.422;2022-09-09T12:45:22;100718.56;;;17.65;84.99
71964;BME280;59834;52.124;5.422;2022-09-09T12:47:56;100721.72;;;17.79;85.46
71964;BME280;59834;52.124;5.422;2022-09-09T12:50:28;100717.97;;;17.81;83.50
71964;BME280;59834;52.124;5.422;2022-09-09T12:53:29;100713.84;;;17.59;82.24
71964;BME280;59834;52.124;5.422;2022-09-09T12:56:05;100708.50;;;17.41;83.77
71964;BME280;59834;52.124;5.422;2022-09-09T12:58:49;100709.03;;;17.45;83.93
71964;BME280;59834;52.124;5.422;2022-09-09T13:01:33;100714.81;;;17.58;83.20
71964;BME280;59834;52.124;5.422;2022-09-09T13:04:22;100714.38;;;17.63;83.04
71964;BME280;59834;52.124;5.422;2022-09-09T13:07:12;100708.22;;;17.72;82.32
71964;BME280;59834;52.124;5.422;2022-09-09T13:09:51;100710.22;;;17.98;81.32
71964;BME280;59834;52.124;5.422;2022-09-09T13:12:22;100709.19;;;18.26;80.50
71964;BME280;59834;52.124;5.422;2022-09-09T13:14:55;100710.69;;;18.47;79.65
71964;BME280;59834;52.124;5.422;2022-09-09T13:17:49;100705.31;;;18.56;79.13
71964;BME280;59834;52.124;5.422;2022-09-09T13:20:28;100706.00;;;18.41;78.69
71964;BME280;59834;52.124;5.422;2022-09-09T13:22:55;100709.69;;;18.12;79.84
71964;BME280;59834;52.124;5.422;2022-09-09T13:25:31;100709.75;;;18.02;79.83
71964;BME280;59834;52.124;5.422;2022-09-09T13:28:31;100711.34;;;17.95;80.45
71964;BME280;59834;52.124;5.422;2022-09-09T13:31:33;100710.22;;;17.98;80.31
71964;BME280;59834;52.124;5.422;2022-09-09T13:35:01;100712.47;;;18.10;80.48
71964;BME280;59834;52.124;5.422;2022-09-09T13:37:40;100711.28;;;18.05;80.12
71964;BME280;59834;52.124;5.422;2022-09-09T13:40:24;100707.03;;;17.94;80.54
71964;BME280;59834;52.124;5.422;2022-09-09T13:43:00;100697.56;;;17.92;80.51
71964;BME280;59834;52.124;5.422;2022-09-09T13:45:52;100696.56;;;17.93;81.79
71964;BME280;59834;52.124;5.422;2022-09-09T13:48:58;100704.56;;;17.83;80.39
71964;BME280;59834;52.124;5.422;2022-09-09T13:52:02;100702.75;;;17.83;80.97
71964;BME280;59834;52.124;5.422;2022-09-09T13:54:36;100698.38;;;17.92;80.13
71964;BME280;59834;52.124;5.422;2022-09-09T13:57:05;100693.47;;;17.97;80.17
71964;BME280;59834;52.124;5.422;2022-09-09T14:00:00;100697.84;;;17.88;80.25
71964;BME280;59834;52.124;5.422;2022-09-09T14:02:33;100703.00;;;17.90;79.80
71964;BME280;59834;52.124;5.422;2022-09-09T14:05:19;100697.09;;;17.96;80.00
71964;BME280;59834;52.124;5.422;2022-09-09T14:08:53;100700.88;;;17.94;80.30
71964;BME280;59834;52.124;5.422;2022-09-09T14:11:47;100702.28;;;17.98;80.07
71964;BME280;59834;52.124;5.422;2022-09-09T14:14:17;100700.97;;;18.02;80.30
71964;BME280;59834;52.124;5.422;2022-09-09T14:16:48;100697.09;;;17.96;80.55
71964;BME280;59834;52.124;5.422;2022-09-09T14:19:48;100686.50;;;17.96;80.61
71964;BME280;59834;52.124;5.422;2022-09-09T14:22:17;100698.34;;;18.02;80.36
71964;BME280;59834;52.124;5.422;2022-09-09T14:24:53;100687.44;;;18.05;80.87
71964;BME280;59834;52.124;5.422;2022-09-09T14:27:22;100691.69;;;17.98;80.37
71964;BME280;59834;52.124;5.422;2022-09-09T14:29:59;100688.56;;;17.84;80.38
71964;BME280;59834;52.124;5.422;2022-09-09T14:32:51;100691.09;;;17.76;81.45
71964;BME280;59834;52.124;5.422;2022-09-09T14:35:17;100692.09;;;17.65;81.52
71964;BME280;59834;52.124;5.422;2022-09-09T14:37:45;100693.50;;;17.60;83.05
71964;BME280;59834;52.124;5.422;2022-09-09T14:40:27;100692.66;;;17.59;83.71
71964;BME280;59834;52.124;5.422;2022-09-09T14:42:58;100693.69;;;17.49;84.17
71964;BME280;59834;52.124;5.422;2022-09-09T14:45:38;100686.75;;;17.48;84.41
71964;BME280;59834;52.124;5.422;2022-09-09T14:48:11;100683.69;;;17.42;85.51
71964;BME280;59834;52.124;5.422;2022-09-09T14:50:40;100679.75;;;17.47;85.96
71964;BME280;59834;52.124;5.422;2022-09-09T14:53:11;100679.75;;;17.47;85.75
71964;BME280;59834;52.124;5.422;2022-09-09T14:56:09;100680.91;;;17.44;85.48
71964;BME280;59834;52.124;5.422;2022-09-09T14:59:19;100675.19;;;17.49;86.29
71964;BME280;59834;52.124;5.422;2022-09-09T15:01:52;100681.47;;;17.48;85.73
71964;BME280;59834;52.124;5.422;2022-09-09T15:08:20;100683.56;;;17.72;85.26
71964;BME280;59834;52.124;5.422;2022-09-09T15:11:14;100685.38;;;17.99;85.61
71964;BME280;59834;52.124;5.422;2022-09-09T15:13:55;100678.75;;;18.30;85.17
71964;BME280;59834;52.124;5.422;2022-09-09T15:16:33;100690.72;;;18.34;83.96
71964;BME280;59834;52.124;5.422;2022-09-09T15:19:03;100686.94;;;18.55;82.71
71964;BME280;59834;52.124;5.422;2022-09-09T15:24:36;100706.09;;;18.49;80.34
71964;BME280;59834;52.124;5.422;2022-09-09T15:31:22;100715.94;;;18.38;80.60
71964;BME280;59834;52.124;5.422;2022-09-09T15:38:41;100716.13;;;18.27;80.50
71964;BME280;59834;52.124;5.422;2022-09-09T15:42:11;100724.75;;;18.11;81.12
71964;BME280;59834;52.124;5.422;2022-09-09T15:44:53;100716.72;;;18.03;80.38
71964;BME280;59834;52.124;5.422;2022-09-09T15:47:54;100720.31;;;17.84;81.46
71964;BME280;59834;52.124;5.422;2022-09-09T15:50:43;100719.25;;;17.77;82.35
71964;BME280;59834;52.124;5.422;2022-09-09T15:53:34;100718.09;;;17.70;82.82
71964;BME280;59834;52.124;5.422;2022-09-09T15:56:43;100720.38;;;17.65;81.92
71964;BME280;59834;52.124;5.422;2022-09-09T16:03:53;100714.28;;;17.55;82.18
71964;BME280;59834;52.124;5.422;2022-09-09T16:07:05;100712.28;;;17.66;82.90
71964;BME280;59834;52.124;5.422;2022-09-09T16:09:47;100706.84;;;17.68;81.18
71964;BME280;59834;52.124;5.422;2022-09-09T16:12:48;100709.78;;;17.65;81.14
71964;BME280;59834;52.124;5.422;2022-09-09T16:15:37;100712.84;;;17.60;81.25
71964;BME280;59834;52.124;5.422;2022-09-09T16:18:09;100718.22;;;17.51;79.20
71964;BME280;59834;52.124;5.422;2022-09-09T16:20:39;100719.31;;;17.48;80.04
71964;BME280;59834;52.124;5.422;2022-09-09T16:27:10;100724.34;;;17.51;79.54
71964;BME280;59834;52.124;5.422;2022-09-09T16:29:50;100712.91;;;17.51;79.48
71964;BME280;59834;52.124;5.422;2022-09-09T16:32:24;100717.06;;;17.53;79.58
71964;BME280;59834;52.124;5.422;2022-09-09T16:34:56;100728.78;;;17.51;80.28
71964;BME280;59834;52.124;5.422;2022-09-09T16:37:36;100732.84;;;17.45;80.51
71964;BME280;59834;52.124;5.422;2022-09-09T16:40:07;100728.66;;;17.42;81.30
71964;BME280;59834;52.124;5.422;2022-09-09T16:43:17;100732.44;;;17.30;80.48
71964;BME280;59834;52.124;5.422;2022-09-09T16:45:46;100745.13;;;17.27;82.04
71964;BME280;59834;52.124;5.422;2022-09-09T16:48:34;100750.88;;;17.22;81.55
71964;BME280;59834;52.124;5.422;2022-09-09T16:55:19;100751.44;;;17.06;82.20
71964;BME280;59834;52.124;5.422;2022-09-09T16:57:57;100749.22;;;17.02;81.45
71964;BME280;59834;52.124;5.422;2022-09-09T17:00:26;100744.38;;;16.97;81.54
71964;BME280;59834;52.124;5.422;2022-09-09T17:02:59;100745.47;;;16.94;82.12
71964;BME280;59834;52.124;5.422;2022-09-09T17:05:59;100752.03;;;16.90;82.10
71964;BME280;59834;52.124;5.422;2022-09-09T17:08:33;100759.25;;;16.88;82.59
71964;BME280;59834;52.124;5.422;2022-09-09T17:11:02;100754.25;;;16.85;82.52
71964;BME280;59834;52.124;5.422;2022-09-09T17:13:58;100757.03;;;16.84;83.03
71964;BME280;59834;52.124;5.422;2022-09-09T17:17:06;100762.47;;;16.82;83.27
71964;BME280;59834;52.124;5.422;2022-09-09T17:20:17;100761.47;;;16.83;83.26
71964;BME280;59834;52.124;5.422;2022-09-09T17:23:11;100757.59;;;16.87;82.84
71964;BME280;59834;52.124;5.422;2022-09-09T17:25:58;100755.63;;;16.89;83.66